Time;durP1;ratioP1;P1;durP2;ratioP2;P2;SDS_P1;SDS_P2;PMS_P1;PMS_P2;Temp;Humidity;BMP_temperature;BMP_pressure;BME280_temperature;BME280_humidity;BME280_pressure;Samples;Min_cycle;Max_cycle;Signal;HPM_P1;HPM_P2
2024/01/10 00:00:56;;;;;;;138.50;65.10;;;;;;;;;;103590;1294;545461;-72
2024/01/10 00:05:01;;;;;;;147.80;67.70;;;;;;;;;;104264;1286;545460;-70
2024/01/10 00:12:12;;;;;;;97.20;33.70;;;;;;;;;;103675;1289;545272;-70
2024/01/10 00:19:35;;;;;;;132.00;66.00;;;;;;;;;;103482;1295;545268;-73
2024/01/10 00:26:51;;;;;;;127.40;64.50;;;;;;;;;;103529;1305;545543;-73
2024/01/10 00:30:18;;;;;;;130.20;65.00;;;;;;;;;;103620;1292;545128;-72
2024/01/10 00:33:55;;;;;;;126.50;65.30;;;;;;;;;;103658;1289;545584;-71
2024/01/10 00:37:33;;;;;;;98.80;33.50;;;;;;;;;;103769;1292;544924;-71
2024/01/10 00:41:07;;;;;;;96.40;35.00;;;;;;;;;;103829;1289;545696;-71
2024/01/10 00:44:48;;;;;;;145.00;72.20;;;;;;;;;;103784;1291;545168;-70
2024/01/10 00:48:25;;;;;;;211.40;90.90;;;;;;;;;;103584;1295;545702;-70
2024/01/10 00:52:03;;;;;;;196.10;87.30;;;;;;;;;;103916;1288;545127;-72
2024/01/10 00:55:40;;;;;;;118.50;36.80;;;;;;;;;;103705;1291;544833;-72
2024/01/10 00:59:18;;;;;;;167.50;78.00;;;;;;;;;;103825;1295;544941;-70
2024/01/10 01:02:55;;;;;;;173.30;87.40;;;;;;;;;;103950;1289;546250;-72
2024/01/10 01:06:33;;;;;;;308.20;125.60;;;;;;;;;;103704;1288;545434;-72
2024/01/10 01:10:10;;;;;;;345.20;86.10;;;;;;;;;;103813;1289;545157;-72
2024/01/10 01:13:47;;;;;;;301.30;125.50;;;;;;;;;;103791;1290;544956;-72
2024/01/10 01:17:25;;;;;;;241.00;104.60;;;;;;;;;;103718;1291;544860;-72
2024/01/10 01:21:04;;;;;;;226.80;58.90;;;;;;;;;;103723;1294;545829;-70
2024/01/10 01:24:40;;;;;;;433.00;170.80;;;;;;;;;;103645;1291;544822;-70
2024/01/10 01:28:13;;;;;;;284.80;120.80;;;;;;;;;;104157;1289;545484;-72
2024/01/10 01:31:55;;;;;;;288.70;121.60;;;;;;;;;;103644;1291;545470;-71
2024/01/10 01:35:32;;;;;;;160.00;49.50;;;;;;;;;;103769;1288;545816;-70
2024/01/10 01:39:09;;;;;;;220.30;100.60;;;;;;;;;;103667;1289;544760;-72
2024/01/10 01:42:47;;;;;;;139.20;43.70;;;;;;;;;;103760;1291;544957;-72
2024/01/10 01:46:25;;;;;;;128.90;45.10;;;;;;;;;;103625;1291;545533;-72
2024/01/10 01:50:08;;;;;;;176.40;83.80;;;;;;;;;;103496;1292;547980;-72
2024/01/10 01:53:41;;;;;;;101.90;33.20;;;;;;;;;;103542;1291;545642;-73
2024/01/10 01:57:17;;;;;;;160.00;74.10;;;;;;;;;;103795;1295;545490;-71
2024/01/10 02:00:55;;;;;;;163.80;76.40;;;;;;;;;;103743;1289;544726;-70
2024/01/10 02:04:38;;;;;;;138.90;63.40;;;;;;;;;;103516;1295;547792;-72
2024/01/10 02:08:09;;;;;;;141.30;66.20;;;;;;;;;;103606;1294;545368;-71
2024/01/10 02:11:48;;;;;;;124.60;60.90;;;;;;;;;;103646;1289;544748;-70
2024/01/10 02:15:30;;;;;;;126.80;58.70;;;;;;;;;;103576;1292;547855;-72
2024/01/10 02:19:17;;;;;;;113.50;56.90;;;;;;;;;;103771;1292;544972;-70
2024/01/10 02:22:40;;;;;;;88.30;29.80;;;;;;;;;;103863;1289;544966;-72
2024/01/10 02:26:22;;;;;;;74.90;27.90;;;;;;;;;;103588;1292;547798;-73
2024/01/10 02:29:55;;;;;;;133.20;62.60;;;;;;;;;;103808;1289;545563;-73
2024/01/10 02:33:32;;;;;;;89.40;31.30;;;;;;;;;;103726;1289;545047;-73
2024/01/10 02:37:15;;;;;;;95.20;31.00;;;;;;;;;;103618;1295;548131;-71
2024/01/10 02:40:47;;;;;;;108.50;36.00;;;;;;;;;;103777;1289;545344;-72
2024/01/10 02:44:25;;;;;;;142.50;68.30;;;;;;;;;;103720;1289;545470;-71
2024/01/10 02:48:02;;;;;;;94.00;33.80;;;;;;;;;;103815;1303;545155;-72
2024/01/10 02:51:39;;;;;;;114.90;35.60;;;;;;;;;;103690;1295;545759;-73
2024/01/10 02:55:16;;;;;;;102.70;33.90;;;;;;;;;;103755;1289;545828;-73
2024/01/10 02:58:54;;;;;;;131.20;65.30;;;;;;;;;;103661;1303;544924;-72
2024/01/10 03:02:27;;;;;;;83.60;30.20;;;;;;;;;;103759;1289;545329;-71
2024/01/10 03:06:09;;;;;;;136.00;64.20;;;;;;;;;;103742;1292;544733;-72
2024/01/10 03:09:46;;;;;;;82.00;29.40;;;;;;;;;;103707;1292;544963;-72
2024/01/10 03:13:24;;;;;;;83.00;30.20;;;;;;;;;;103598;1291;545300;-72
2024/01/10 03:17:02;;;;;;;128.40;62.40;;;;;;;;;;103659;1292;544853;-72
2024/01/10 03:20:39;;;;;;;90.20;28.60;;;;;;;;;;103757;1289;546033;-71
2024/01/10 03:24:16;;;;;;;90.10;31.50;;;;;;;;;;103727;1294;545139;-73
2024/01/10 03:27:54;;;;;;;86.20;31.50;;;;;;;;;;103697;1301;544806;-71
2024/01/10 03:31:31;;;;;;;88.40;31.00;;;;;;;;;;104694;1285;546184;-71
2024/01/10 03:35:08;;;;;;;114.20;36.50;;;;;;;;;;103740;1291;545809;-70
2024/01/10 03:38:46;;;;;;;102.90;35.70;;;;;;;;;;103766;1289;545991;-72
2024/01/10 03:42:24;;;;;;;104.90;34.90;;;;;;;;;;103674;1289;545326;-71
2024/01/10 03:46:01;;;;;;;176.80;85.10;;;;;;;;;;103859;1289;544709;-71
2024/01/10 03:49:38;;;;;;;115.80;40.40;;;;;;;;;;103926;1292;545764;-71
2024/01/10 03:53:16;;;;;;;100.90;36.40;;;;;;;;;;103671;1291;545523;-71
2024/01/10 03:56:53;;;;;;;105.60;34.70;;;;;;;;;;103666;1302;544826;-72
2024/01/10 04:00:30;;;;;;;149.10;71.20;;;;;;;;;;103694;1292;544809;-70
2024/01/10 04:04:05;;;;;;;80.10;27.90;;;;;;;;;;103820;1293;545075;-72
2024/01/10 04:07:45;;;;;;;105.80;51.80;;;;;;;;;;103732;1289;545550;-70
2024/01/10 04:11:24;;;;;;;71.30;22.90;;;;;;;;;;103650;1292;545309;-72
2024/01/10 04:15:00;;;;;;;98.80;49.20;;;;;;;;;;103818;1289;544951;-72
2024/01/10 04:18:38;;;;;;;71.90;23.90;;;;;;;;;;103679;1289;544834;-70
2024/01/10 04:22:16;;;;;;;104.10;52.40;;;;;;;;;;104015;1288;545172;-71
2024/01/10 04:25:53;;;;;;;129.90;35.20;;;;;;;;;;103614;1289;545565;-70
2024/01/10 04:29:30;;;;;;;102.00;32.10;;;;;;;;;;103680;1292;544730;-71
2024/01/10 04:33:07;;;;;;;84.70;30.00;;;;;;;;;;103767;1292;545361;-72
2024/01/10 04:36:45;;;;;;;111.60;54.80;;;;;;;;;;103657;1303;544923;-70
2024/01/10 04:40:23;;;;;;;151.60;62.30;;;;;;;;;;103754;1289;544920;-72
2024/01/10 04:44:00;;;;;;;271.50;106.90;;;;;;;;;;103431;1293;546027;-72
2024/01/10 04:47:37;;;;;;;222.80;91.80;;;;;;;;;;103705;1291;545669;-71
2024/01/10 04:51:15;;;;;;;115.30;35.00;;;;;;;;;;103789;1290;544842;-72
2024/01/10 04:54:53;;;;;;;145.50;66.80;;;;;;;;;;104062;1289;544710;-72
2024/01/10 04:58:32;;;;;;;165.10;75.30;;;;;;;;;;103783;1295;544970;-70
2024/01/10 05:02:08;;;;;;;207.80;53.20;;;;;;;;;;103801;1289;545133;-71
2024/01/10 05:05:44;;;;;;;156.00;46.40;;;;;;;;;;103790;1289;544963;-70
2024/01/10 05:09:22;;;;;;;99.20;32.40;;;;;;;;;;103855;1289;544953;-70
2024/01/10 05:13:00;;;;;;;83.00;29.50;;;;;;;;;;103847;1291;545633;-72
2024/01/10 05:16:33;;;;;;;78.10;27.60;;;;;;;;;;103897;1289;544733;-71
2024/01/10 05:20:15;;;;;;;65.20;23.80;;;;;;;;;;103733;1288;545500;-71
2024/01/10 05:23:52;;;;;;;102.20;50.50;;;;;;;;;;103711;1290;545954;-71
2024/01/10 05:27:30;;;;;;;79.50;27.30;;;;;;;;;;103792;1289;545760;-70
2024/01/10 05:31:07;;;;;;;62.30;24.10;;;;;;;;;;103670;1289;545056;-70
2024/01/10 05:34:45;;;;;;;108.50;52.90;;;;;;;;;;103796;1295;544999;-72
2024/01/10 05:38:18;;;;;;;96.10;47.90;;;;;;;;;;103580;1292;544666;-72
2024/01/10 05:41:59;;;;;;;73.80;24.90;;;;;;;;;;103463;1295;544936;-71
2024/01/10 05:45:37;;;;;;;106.30;52.70;;;;;;;;;;103546;1290;545514;-72
2024/01/10 05:49:15;;;;;;;75.60;25.50;;;;;;;;;;103804;1289;544694;-70
2024/01/10 05:52:53;;;;;;;114.40;57.30;;;;;;;;;;103703;1290;544713;-72
2024/01/10 05:56:29;;;;;;;74.70;26.50;;;;;;;;;;104282;1286;544947;-72
2024/01/10 06:00:09;;;;;;;104.10;53.90;;;;;;;;;;103684;1290;545876;-70
2024/01/10 06:03:44;;;;;;;78.90;26.50;;;;;;;;;;103831;1289;545023;-73
2024/01/10 06:07:22;;;;;;;72.70;25.60;;;;;;;;;;103776;1292;545225;-70
2024/01/10 06:11:02;;;;;;;119.20;54.60;;;;;;;;;;103733;1289;544942;-72
2024/01/10 06:14:38;;;;;;;117.70;55.30;;;;;;;;;;103697;1292;544942;-70
2024/01/10 06:18:14;;;;;;;70.50;26.00;;;;;;;;;;103706;1289;544776;-71
2024/01/10 06:21:52;;;;;;;105.90;52.00;;;;;;;;;;103694;1290;545124;-69
2024/01/10 06:25:29;;;;;;;64.70;22.70;;;;;;;;;;103664;1292;544779;-72
2024/01/10 06:29:07;;;;;;;94.30;47.50;;;;;;;;;;103670;1291;544857;-73
2024/01/10 06:32:45;;;;;;;102.30;33.80;;;;;;;;;;103777;1289;545799;-73
2024/01/10 06:36:21;;;;;;;120.30;36.30;;;;;;;;;;103583;1298;544853;-73
2024/01/10 06:39:58;;;;;;;232.30;109.50;;;;;;;;;;103797;1289;546027;-71
2024/01/10 06:43:37;;;;;;;143.30;45.50;;;;;;;;;;103704;1292;544782;-71
2024/01/10 06:47:14;;;;;;;175.30;84.20;;;;;;;;;;103690;1291;545485;-71
2024/01/10 06:50:52;;;;;;;168.70;78.00;;;;;;;;;;103727;1290;544955;-70
2024/01/10 06:54:25;;;;;;;164.10;75.80;;;;;;;;;;103716;1296;545763;-72
2024/01/10 06:58:07;;;;;;;153.50;74.10;;;;;;;;;;104489;1282;545023;-71
2024/01/10 07:01:44;;;;;;;96.20;35.50;;;;;;;;;;103694;1292;545369;-70
2024/01/10 07:05:22;;;;;;;98.60;33.30;;;;;;;;;;103752;1293;545678;-73
2024/01/10 07:09:05;;;;;;;141.40;69.20;;;;;;;;;;103572;1291;548039;-71
2024/01/10 07:12:37;;;;;;;131.60;65.70;;;;;;;;;;103749;1292;545428;-71
2024/01/10 07:16:10;;;;;;;117.70;58.00;;;;;;;;;;103857;1290;545389;-71
2024/01/10 07:19:53;;;;;;;118.70;37.20;;;;;;;;;;103683;1292;544787;-73
2024/01/10 07:23:29;;;;;;;102.70;33.90;;;;;;;;;;103660;1294;545684;-71
2024/01/10 07:27:02;;;;;;;127.80;43.00;;;;;;;;;;103751;1289;545064;-70
2024/01/10 07:30:44;;;;;;;153.00;48.60;;;;;;;;;;103851;1295;545823;-72
2024/01/10 07:34:22;;;;;;;148.10;73.90;;;;;;;;;;103706;1292;544911;-70
2024/01/10 07:37:55;;;;;;;131.10;66.50;;;;;;;;;;104340;1289;545604;-72
2024/01/10 07:41:36;;;;;;;96.10;33.50;;;;;;;;;;103700;1291;545596;-73
2024/01/10 07:45:14;;;;;;;88.30;32.40;;;;;;;;;;104111;1286;545830;-71
2024/01/10 07:48:51;;;;;;;137.80;65.00;;;;;;;;;;103891;1289;545046;-71
2024/01/10 07:52:29;;;;;;;142.00;66.90;;;;;;;;;;104389;1294;545743;-71
2024/01/10 07:56:06;;;;;;;111.30;35.70;;;;;;;;;;103638;1295;544798;-71
2024/01/10 07:59:39;;;;;;;172.20;78.80;;;;;;;;;;103926;1289;544962;-72
2024/01/10 08:03:21;;;;;;;152.30;73.60;;;;;;;;;;103714;1292;544698;-72
2024/01/10 08:06:58;;;;;;;151.30;77.50;;;;;;;;;;103783;1292;544820;-71
2024/01/10 08:10:56;;;;;;;148.20;75.50;;;;;;;;;;103532;1289;548093;-71
2024/01/10 08:14:15;;;;;;;147.30;74.30;;;;;;;;;;103751;1291;544908;-73
2024/01/10 08:17:51;;;;;;;140.10;71.20;;;;;;;;;;103970;1288;545587;-72
2024/01/10 08:21:25;;;;;;;138.50;69.10;;;;;;;;;;103816;1292;544851;-71
2024/01/10 08:25:06;;;;;;;136.40;67.20;;;;;;;;;;103790;1292;544955;-73
2024/01/10 08:28:43;;;;;;;136.30;67.30;;;;;;;;;;103754;1292;544767;-72
2024/01/10 08:32:24;;;;;;;133.90;69.20;;;;;;;;;;103694;1292;545641;-71
2024/01/10 08:35:58;;;;;;;123.20;64.70;;;;;;;;;;103674;1291;544794;-70
2024/01/10 08:39:32;;;;;;;128.70;67.40;;;;;;;;;;104111;1285;545714;-70
2024/01/10 08:43:09;;;;;;;118.60;60.70;;;;;;;;;;103812;1295;544856;-70
2024/01/10 08:46:54;;;;;;;116.40;59.60;;;;;;;;;;103666;1291;544939;-73
2024/01/10 08:50:28;;;;;;;124.30;62.40;;;;;;;;;;103771;1292;544991;-70
2024/01/10 08:54:05;;;;;;;128.10;64.80;;;;;;;;;;103700;1290;545052;-72
2024/01/10 08:57:43;;;;;;;121.70;61.40;;;;;;;;;;103776;1289;545012;-70
2024/01/10 09:01:20;;;;;;;123.70;64.80;;;;;;;;;;103641;1291;544952;-73
2024/01/10 09:05:04;;;;;;;125.40;63.80;;;;;;;;;;103509;1292;546149;-72
2024/01/10 09:08:36;;;;;;;128.10;68.70;;;;;;;;;;103749;1290;545055;-73
2024/01/10 09:12:13;;;;;;;123.10;64.40;;;;;;;;;;103766;1289;546338;-73
2024/01/10 09:15:50;;;;;;;139.10;75.80;;;;;;;;;;103766;1288;545268;-73
2024/01/10 09:19:28;;;;;;;145.90;72.90;;;;;;;;;;103836;1292;544980;-73
2024/01/10 09:23:05;;;;;;;189.20;104.70;;;;;;;;;;103665;1290;545064;-70
2024/01/10 09:26:43;;;;;;;162.00;88.70;;;;;;;;;;103872;1289;544748;-70
2024/01/10 09:30:20;;;;;;;131.70;67.10;;;;;;;;;;103784;1292;545987;-70
2024/01/10 09:33:57;;;;;;;127.80;64.70;;;;;;;;;;103732;1291;545007;-73
2024/01/10 09:37:35;;;;;;;135.70;71.30;;;;;;;;;;103607;1292;545859;-70
2024/01/10 09:41:15;;;;;;;197.70;93.40;;;;;;;;;;103814;1289;544816;-73
2024/01/10 09:44:50;;;;;;;269.50;124.40;;;;;;;;;;103890;1288;544831;-70
2024/01/10 09:48:27;;;;;;;162.80;83.90;;;;;;;;;;103817;1289;545082;-70
2024/01/10 09:52:09;;;;;;;196.30;98.20;;;;;;;;;;103638;1298;544636;-73
2024/01/10 09:55:43;;;;;;;178.60;94.10;;;;;;;;;;104150;1286;544943;-70
2024/01/10 09:59:16;;;;;;;145.60;80.50;;;;;;;;;;103952;1292;545435;-70
2024/01/10 10:02:59;;;;;;;118.20;66.70;;;;;;;;;;103822;1289;545146;-70
2024/01/10 10:06:35;;;;;;;125.90;65.60;;;;;;;;;;103612;1290;545681;-73
2024/01/10 10:10:12;;;;;;;128.80;66.90;;;;;;;;;;103802;1289;544884;-73
2024/01/10 10:13:50;;;;;;;121.60;64.40;;;;;;;;;;103587;1291;545312;-70
2024/01/10 10:17:28;;;;;;;126.60;65.70;;;;;;;;;;103821;1295;545775;-73
2024/01/10 10:21:12;;;;;;;115.10;61.50;;;;;;;;;;103702;1296;545737;-72
2024/01/10 10:24:48;;;;;;;118.40;64.40;;;;;;;;;;103739;1291;545559;-71
2024/01/10 10:28:20;;;;;;;133.20;71.30;;;;;;;;;;103620;1291;545444;-71
2024/01/10 10:31:57;;;;;;;136.60;75.70;;;;;;;;;;103754;1292;545428;-72
2024/01/10 10:35:35;;;;;;;131.90;69.40;;;;;;;;;;103753;1290;544794;-72
2024/01/10 10:39:15;;;;;;;131.50;70.00;;;;;;;;;;103781;1289;545039;-72
2024/01/10 10:42:54;;;;;;;144.30;73.00;;;;;;;;;;103802;1291;545530;-72
2024/01/10 10:46:27;;;;;;;146.10;76.00;;;;;;;;;;104032;1287;545066;-71
2024/01/10 10:50:05;;;;;;;166.50;89.50;;;;;;;;;;104146;1286;545617;-72
2024/01/10 10:53:45;;;;;;;127.40;69.20;;;;;;;;;;103807;1289;544831;-71
2024/01/10 10:57:20;;;;;;;121.20;66.10;;;;;;;;;;103731;1294;545043;-72
2024/01/10 11:00:57;;;;;;;119.60;68.60;;;;;;;;;;103668;1292;546336;-72
2024/01/10 11:04:34;;;;;;;130.50;73.50;;;;;;;;;;103608;1291;545814;-72
2024/01/10 11:08:14;;;;;;;137.30;75.40;;;;;;;;;;103932;1300;544902;-73
2024/01/10 11:12:02;;;;;;;156.60;89.80;;;;;;;;;;103928;1289;544823;-74
2024/01/10 11:15:36;;;;;;;149.50;84.20;;;;;;;;;;103762;1289;544816;-72
2024/01/10 11:19:24;;;;;;;136.00;73.80;;;;;;;;;;103608;1295;544795;-72
2024/01/10 11:22:51;;;;;;;124.20;67.40;;;;;;;;;;103921;1290;544855;-72
2024/01/10 11:26:20;;;;;;;123.20;68.20;;;;;;;;;;103759;1290;544787;-74
2024/01/10 11:29:58;;;;;;;115.00;64.60;;;;;;;;;;103800;1289;544828;-72
2024/01/10 11:33:40;;;;;;;124.60;68.30;;;;;;;;;;103589;1289;544861;-72
2024/01/10 11:37:12;;;;;;;124.10;68.30;;;;;;;;;;103773;1291;545518;-72
2024/01/10 11:40:52;;;;;;;127.20;68.20;;;;;;;;;;103699;1292;545729;-72
2024/01/10 11:44:26;;;;;;;120.90;65.30;;;;;;;;;;103724;1289;545078;-73
2024/01/10 11:48:07;;;;;;;105.90;58.40;;;;;;;;;;103768;1301;545635;-72
2024/01/10 11:51:48;;;;;;;105.40;57.70;;;;;;;;;;103779;1292;545297;-72
2024/01/10 11:55:38;;;;;;;111.70;62.30;;;;;;;;;;103942;1290;545687;-73
2024/01/10 11:59:04;;;;;;;119.60;67.80;;;;;;;;;;103730;1290;544792;-73
2024/01/10 12:02:34;;;;;;;123.00;68.20;;;;;;;;;;103848;1289;545490;-72
2024/01/10 12:06:12;;;;;;;127.20;69.80;;;;;;;;;;103832;1289;544986;-73
2024/01/10 12:09:49;;;;;;;124.20;68.50;;;;;;;;;;103786;1294;546309;-72
2024/01/10 12:13:27;;;;;;;132.50;72.00;;;;;;;;;;103691;1290;544982;-72
2024/01/10 12:17:06;;;;;;;132.70;69.80;;;;;;;;;;103676;1290;545032;-73
2024/01/10 12:20:43;;;;;;;130.50;70.50;;;;;;;;;;103833;1292;545043;-73
2024/01/10 12:24:20;;;;;;;130.00;69.20;;;;;;;;;;103710;1291;544989;-73
2024/01/10 12:28:01;;;;;;;135.90;72.10;;;;;;;;;;103524;1295;544751;-73
2024/01/10 12:31:34;;;;;;;138.80;72.50;;;;;;;;;;103750;1289;545540;-73
2024/01/10 12:35:11;;;;;;;148.80;81.10;;;;;;;;;;103847;1290;545018;-73
2024/01/10 12:38:50;;;;;;;142.70;79.00;;;;;;;;;;103605;1291;545066;-73
2024/01/10 12:42:26;;;;;;;130.70;74.80;;;;;;;;;;103723;1291;545259;-73
2024/01/10 12:46:07;;;;;;;131.50;72.60;;;;;;;;;;103755;1288;545084;-73
2024/01/10 12:49:40;;;;;;;134.50;75.20;;;;;;;;;;103780;1295;545372;-74
2024/01/10 12:53:18;;;;;;;131.30;73.80;;;;;;;;;;103711;1295;545799;-73
2024/01/10 12:56:56;;;;;;;193.40;117.90;;;;;;;;;;103764;1289;545004;-72
2024/01/10 13:00:45;;;;;;;161.90;90.30;;;;;;;;;;104566;1285;545564;-73
2024/01/10 13:04:12;;;;;;;155.70;84.40;;;;;;;;;;103653;1292;544767;-72
2024/01/10 13:07:49;;;;;;;129.00;72.00;;;;;;;;;;103684;1291;544837;-72
2024/01/10 13:11:25;;;;;;;125.90;70.30;;;;;;;;;;103736;1289;545427;-72
2024/01/10 13:15:04;;;;;;;127.50;72.10;;;;;;;;;;103709;1291;544834;-72
2024/01/10 13:18:40;;;;;;;128.80;73.50;;;;;;;;;;103700;1291;546301;-73
2024/01/10 13:22:18;;;;;;;133.60;75.90;;;;;;;;;;103897;1289;545968;-72
2024/01/10 13:26:07;;;;;;;133.40;74.70;;;;;;;;;;103175;1297;548246;-72
2024/01/10 13:29:34;;;;;;;130.20;75.30;;;;;;;;;;103723;1292;545969;-72
2024/01/10 13:33:10;;;;;;;170.10;102.70;;;;;;;;;;103804;1289;545421;-72
2024/01/10 13:36:48;;;;;;;151.90;85.50;;;;;;;;;;103874;1289;545188;-72
2024/01/10 13:40:26;;;;;;;141.70;82.00;;;;;;;;;;103816;1292;545940;-72
2024/01/10 13:43:59;;;;;;;132.40;72.20;;;;;;;;;;103750;1292;544753;-73
2024/01/10 13:47:40;;;;;;;127.80;69.10;;;;;;;;;;103837;1289;545383;-73
2024/01/10 13:51:18;;;;;;;121.40;66.80;;;;;;;;;;103629;1289;544957;-73
2024/01/10 13:54:56;;;;;;;122.40;68.70;;;;;;;;;;103834;1288;545387;-72
2024/01/10 13:58:33;;;;;;;119.60;67.80;;;;;;;;;;103748;1292;545038;-72
2024/01/10 14:02:10;;;;;;;134.90;72.90;;;;;;;;;;103733;1287;545154;-73
2024/01/10 14:05:48;;;;;;;132.70;74.80;;;;;;;;;;103599;1291;544972;-72
2024/01/10 14:09:25;;;;;;;158.40;85.20;;;;;;;;;;103740;1292;544849;-72
2024/01/10 14:12:59;;;;;;;168.80;91.40;;;;;;;;;;103879;1288;545473;-73
2024/01/10 14:16:41;;;;;;;177.70;96.80;;;;;;;;;;103672;1292;544775;-73
2024/01/10 14:20:18;;;;;;;161.20;87.50;;;;;;;;;;103697;1293;544793;-73
2024/01/10 14:24:01;;;;;;;129.20;72.40;;;;;;;;;;103666;1292;547848;-72
2024/01/10 14:27:32;;;;;;;127.80;71.50;;;;;;;;;;103798;1288;545940;-72
2024/01/10 14:31:13;;;;;;;130.90;75.10;;;;;;;;;;103958;1289;545017;-72
2024/01/10 14:34:47;;;;;;;141.50;78.50;;;;;;;;;;103744;1289;545285;-74
2024/01/10 14:38:24;;;;;;;152.30;84.60;;;;;;;;;;103863;1292;545194;-74
2024/01/10 14:42:02;;;;;;;154.10;82.10;;;;;;;;;;103752;1289;545325;-73
2024/01/10 14:45:39;;;;;;;179.90;91.50;;;;;;;;;;104205;1285;545042;-72
2024/01/10 14:49:22;;;;;;;173.20;87.10;;;;;;;;;;103881;1296;548219;-72
2024/01/10 14:52:54;;;;;;;190.80;97.10;;;;;;;;;;103734;1292;544970;-72
2024/01/10 14:56:31;;;;;;;249.10;118.00;;;;;;;;;;103713;1291;544843;-74
2024/01/10 15:00:05;;;;;;;254.20;120.10;;;;;;;;;;104008;1290;544780;-72
2024/01/10 15:03:46;;;;;;;268.30;126.60;;;;;;;;;;103613;1293;546530;-73
2024/01/10 15:07:24;;;;;;;261.50;122.30;;;;;;;;;;103798;1292;545218;-74
2024/01/10 15:11:02;;;;;;;256.80;117.70;;;;;;;;;;103733;1290;545357;-74
2024/01/10 15:14:39;;;;;;;222.70;105.50;;;;;;;;;;103786;1291;544922;-74
2024/01/10 15:18:16;;;;;;;185.20;94.10;;;;;;;;;;103816;1292;544830;-73
2024/01/10 15:21:53;;;;;;;184.50;92.40;;;;;;;;;;103924;1289;545119;-74
2024/01/10 15:25:31;;;;;;;168.30;88.80;;;;;;;;;;103762;1291;546375;-74
2024/01/10 15:29:09;;;;;;;163.10;83.40;;;;;;;;;;104471;1282;544998;-74
2024/01/10 15:32:48;;;;;;;148.70;79.60;;;;;;;;;;103552;1292;544721;-73
2024/01/10 15:36:24;;;;;;;144.00;76.20;;;;;;;;;;103688;1291;545056;-73
2024/01/10 15:40:01;;;;;;;146.90;81.80;;;;;;;;;;103710;1289;545445;-74
2024/01/10 15:43:39;;;;;;;151.20;83.10;;;;;;;;;;103426;1295;545370;-74
2024/01/10 15:47:16;;;;;;;151.00;82.40;;;;;;;;;;103802;1292;545729;-74
2024/01/10 15:51:09;;;;;;;158.90;91.00;;;;;;;;;;103735;1291;548097;-73
2024/01/10 15:54:37;;;;;;;174.10;98.40;;;;;;;;;;103700;1290;544871;-73
2024/01/10 15:58:08;;;;;;;187.70;102.00;;;;;;;;;;103742;1289;546071;-72
2024/01/10 16:01:46;;;;;;;286.10;156.80;;;;;;;;;;103691;1290;545010;-73
2024/01/10 16:05:24;;;;;;;256.20;136.90;;;;;;;;;;103387;1297;545082;-74
2024/01/10 16:09:03;;;;;;;244.40;128.00;;;;;;;;;;103674;1291;545090;-74
2024/01/10 16:12:41;;;;;;;237.20;127.40;;;;;;;;;;103722;1291;546252;-73
2024/01/10 16:16:16;;;;;;;222.00;122.10;;;;;;;;;;103730;1302;545172;-74
2024/01/10 16:19:53;;;;;;;217.20;117.00;;;;;;;;;;103688;1292;545533;-72
2024/01/10 16:23:31;;;;;;;224.70;118.40;;;;;;;;;;103729;1289;544823;-71
2024/01/10 16:27:08;;;;;;;231.40;121.90;;;;;;;;;;103693;1289;544846;-72
2024/01/10 16:30:49;;;;;;;226.20;123.90;;;;;;;;;;103778;1289;544815;-72
2024/01/10 16:34:20;;;;;;;222.30;126.60;;;;;;;;;;103822;1295;545024;-72
2024/01/10 16:37:58;;;;;;;221.90;124.50;;;;;;;;;;103774;1290;545601;-73
2024/01/10 16:41:38;;;;;;;224.20;124.00;;;;;;;;;;104175;1286;544962;-74
2024/01/10 16:45:16;;;;;;;235.50;128.10;;;;;;;;;;103613;1292;544918;-73
2024/01/10 16:48:54;;;;;;;266.90;156.20;;;;;;;;;;103664;1291;545789;-73
2024/01/10 16:52:31;;;;;;;269.50;158.10;;;;;;;;;;103771;1289;545079;-71
2024/01/10 16:56:08;;;;;;;273.00;152.80;;;;;;;;;;103663;1292;545161;-72
2024/01/10 16:59:46;;;;;;;271.00;147.60;;;;;;;;;;104170;1286;545492;-74
2024/01/10 17:03:24;;;;;;;277.30;152.50;;;;;;;;;;103599;1292;545183;-73
2024/01/10 17:07:03;;;;;;;308.80;178.30;;;;;;;;;;103755;1289;545507;-73
2024/01/10 17:10:37;;;;;;;302.30;165.90;;;;;;;;;;103721;1292;545435;-73
2024/01/10 17:14:18;;;;;;;288.00;159.90;;;;;;;;;;103619;1291;544934;-73
2024/01/10 17:17:53;;;;;;;301.00;157.50;;;;;;;;;;103756;1296;545218;-73
2024/01/10 17:21:31;;;;;;;302.80;168.10;;;;;;;;;;103807;1291;544788;-72
2024/01/10 17:25:16;;;;;;;312.50;171.00;;;;;;;;;;104537;1285;544987;-72
2024/01/10 17:28:53;;;;;;;335.00;179.00;;;;;;;;;;103392;1294;548206;-73
2024/01/10 17:32:24;;;;;;;339.60;180.10;;;;;;;;;;103688;1291;545277;-73
2024/01/10 17:36:00;;;;;;;324.40;170.90;;;;;;;;;;103724;1292;544793;-73
2024/01/10 17:39:42;;;;;;;312.60;173.10;;;;;;;;;;103685;1292;545157;-72
2024/01/10 17:43:21;;;;;;;330.40;179.30;;;;;;;;;;103614;1291;548670;-72
2024/01/10 17:46:52;;;;;;;328.30;173.80;;;;;;;;;;103724;1289;545507;-73
2024/01/10 17:50:32;;;;;;;321.90;167.50;;;;;;;;;;103818;1295;544984;-73
2024/01/10 17:54:08;;;;;;;316.90;174.40;;;;;;;;;;103789;1289;544839;-73
2024/01/10 17:57:47;;;;;;;355.50;189.60;;;;;;;;;;103807;1295;544933;-74
2024/01/10 18:01:22;;;;;;;337.80;180.40;;;;;;;;;;103579;1291;546119;-72
2024/01/10 18:05:02;;;;;;;466.60;250.00;;;;;;;;;;103725;1294;545402;-72
2024/01/10 18:08:37;;;;;;;513.90;274.50;;;;;;;;;;103734;1289;545065;-71
2024/01/10 18:12:18;;;;;;;414.40;216.60;;;;;;;;;;103778;1289;545011;-71
2024/01/10 18:15:53;;;;;;;393.90;212.90;;;;;;;;;;104358;1289;545108;-71
2024/01/10 18:19:31;;;;;;;436.40;226.50;;;;;;;;;;103803;1289;544824;-73
2024/01/10 18:23:07;;;;;;;532.00;280.10;;;;;;;;;;103682;1295;545597;-73
2024/01/10 18:26:51;;;;;;;549.30;290.10;;;;;;;;;;103766;1289;544767;-73
2024/01/10 18:30:22;;;;;;;401.90;127.70;;;;;;;;;;103566;1292;545050;-71
2024/01/10 18:34:01;;;;;;;533.80;289.60;;;;;;;;;;103677;1292;545055;-73
2024/01/10 18:37:38;;;;;;;516.80;275.60;;;;;;;;;;103759;1289;544903;-71
2024/01/10 18:41:16;;;;;;;464.90;245.80;;;;;;;;;;103768;1292;544958;-73
2024/01/10 18:44:53;;;;;;;485.90;264.60;;;;;;;;;;103792;1292;545529;-72
2024/01/10 18:48:30;;;;;;;476.40;254.50;;;;;;;;;;103768;1289;545035;-71
2024/01/10 18:52:07;;;;;;;478.40;256.90;;;;;;;;;;103761;1290;545606;-73
2024/01/10 18:55:44;;;;;;;529.00;293.00;;;;;;;;;;103709;1289;545362;-71
2024/01/10 18:59:22;;;;;;;637.90;340.70;;;;;;;;;;103648;1291;545261;-71
2024/01/10 19:03:03;;;;;;;594.40;316.00;;;;;;;;;;103688;1292;544805;-72
2024/01/10 19:06:38;;;;;;;535.00;300.00;;;;;;;;;;103915;1290;545039;-72
2024/01/10 19:10:15;;;;;;;457.30;247.10;;;;;;;;;;103980;1290;544779;-74
2024/01/10 19:13:52;;;;;;;429.80;229.40;;;;;;;;;;103743;1290;546135;-72
2024/01/10 19:17:30;;;;;;;398.40;210.60;;;;;;;;;;103779;1288;545056;-73
2024/01/10 19:21:07;;;;;;;509.30;279.30;;;;;;;;;;103611;1291;545413;-73
2024/01/10 19:24:44;;;;;;;546.90;307.60;;;;;;;;;;103999;1288;545168;-72
2024/01/10 19:28:23;;;;;;;572.80;321.10;;;;;;;;;;103645;1292;545708;-72
2024/01/10 19:32:00;;;;;;;571.10;327.70;;;;;;;;;;103729;1289;545151;-73
2024/01/10 19:35:37;;;;;;;572.40;323.80;;;;;;;;;;103825;1289;545347;-71
2024/01/10 19:39:14;;;;;;;583.10;328.10;;;;;;;;;;103718;1290;544786;-73
2024/01/10 19:42:52;;;;;;;513.90;282.70;;;;;;;;;;103794;1292;545641;-72
2024/01/10 19:46:28;;;;;;;294.80;103.90;;;;;;;;;;103669;1292;545248;-72
2024/01/10 19:50:09;;;;;;;458.50;246.20;;;;;;;;;;103699;1289;545858;-73
2024/01/10 19:53:48;;;;;;;350.80;184.10;;;;;;;;;;103718;1296;545140;-72
2024/01/10 19:57:21;;;;;;;276.10;140.00;;;;;;;;;;103690;1293;544962;-71
2024/01/10 20:01:00;;;;;;;253.90;132.80;;;;;;;;;;103637;1291;545559;-73
2024/01/10 20:04:35;;;;;;;248.50;127.50;;;;;;;;;;103740;1295;544863;-73
2024/01/10 20:08:14;;;;;;;236.30;121.70;;;;;;;;;;103662;1290;544742;-72
2024/01/10 20:11:51;;;;;;;262.20;135.80;;;;;;;;;;103784;1289;545008;-73
2024/01/10 20:15:37;;;;;;;279.60;141.70;;;;;;;;;;103725;1295;546172;-73
2024/01/10 20:19:07;;;;;;;458.40;214.70;;;;;;;;;;103747;1289;545337;-72